createdAt,value
2017-11-11T00:01:45.269Z,6.60
2017-11-11T00:04:12.817Z,6.60
2017-11-11T00:06:41.093Z,6.60
2017-11-11T00:09:08.646Z,6.50
2017-11-11T00:11:36.331Z,6.50
2017-11-11T00:14:03.847Z,6.50
2017-11-11T00:16:31.390Z,6.50
2017-11-11T00:18:59.168Z,6.40
2017-11-11T00:21:26.814Z,6.40
2017-11-11T00:23:54.513Z,6.40
2017-11-11T00:26:22.022Z,6.40
2017-11-11T00:28:49.746Z,6.40
2017-11-11T00:31:17.325Z,6.40
2017-11-11T00:33:44.846Z,6.40
2017-11-11T00:36:12.383Z,6.30
2017-11-11T00:38:39.894Z,6.30
2017-11-11T00:41:07.418Z,6.30
2017-11-11T00:43:35.429Z,6.30
2017-11-11T00:46:02.986Z,6.20
2017-11-11T00:48:30.828Z,6.20
2017-11-11T00:50:58.371Z,6.20
2017-11-11T00:53:26.087Z,6.10
2017-11-11T00:55:53.865Z,6.10
2017-11-11T00:58:21.401Z,6.10
2017-11-11T01:00:49.159Z,6.00
2017-11-11T01:03:17.434Z,6.00
2017-11-11T01:05:44.967Z,6.00
2017-11-11T01:08:12.493Z,6.00
2017-11-11T01:10:40.050Z,6.00
2017-11-11T01:13:07.659Z,5.90
2017-11-11T01:15:35.213Z,5.90
2017-11-11T01:18:02.761Z,5.90
2017-11-11T01:20:30.531Z,5.90
2017-11-11T01:22:58.057Z,5.80
2017-11-11T01:25:25.567Z,5.80
2017-11-11T01:27:53.933Z,5.70
2017-11-11T01:30:22.237Z,5.60
2017-11-11T01:32:49.756Z,5.60
2017-11-11T01:35:18.178Z,5.60
2017-11-11T01:37:45.723Z,5.60
2017-11-11T01:40:13.309Z,5.60
2017-11-11T01:42:40.876Z,5.60
2017-11-11T01:45:08.415Z,5.50
2017-11-11T01:47:36.707Z,5.40
2017-11-11T01:50:04.293Z,5.40
2017-11-11T01:52:31.792Z,5.40
2017-11-11T01:54:59.311Z,5.40
2017-11-11T01:57:26.873Z,5.50
2017-11-11T01:59:54.406Z,5.40
2017-11-11T02:02:21.940Z,5.40
2017-11-11T02:04:49.522Z,5.30
2017-11-11T02:07:17.049Z,5.30
2017-11-11T02:09:44.600Z,5.30
2017-11-11T02:12:12.198Z,5.20
2017-11-11T02:14:39.892Z,5.20
2017-11-11T02:17:07.512Z,5.20
2017-11-11T02:19:35.033Z,5.20
2017-11-11T02:22:02.550Z,5.20
2017-11-11T02:24:30.094Z,5.20
2017-11-11T02:26:58.373Z,5.10
2017-11-11T02:29:25.890Z,5.10
2017-11-11T02:31:53.449Z,5.10
2017-11-11T02:34:20.956Z,5.00
2017-11-11T02:36:48.489Z,5.00
2017-11-11T02:39:16.010Z,4.90
2017-11-11T02:41:43.518Z,4.90
2017-11-11T02:44:11.073Z,4.90
2017-11-11T02:46:38.582Z,4.90
2017-11-11T02:49:06.098Z,4.80
2017-11-11T02:51:33.625Z,4.80
2017-11-11T02:54:01.150Z,4.80
2017-11-11T02:56:28.722Z,4.80
2017-11-11T02:58:56.229Z,4.80
2017-11-11T03:01:23.732Z,4.80
2017-11-11T03:03:51.270Z,4.80
2017-11-11T03:06:19.587Z,4.80
2017-11-11T03:08:47.168Z,4.80
2017-11-11T03:11:14.682Z,4.70
2017-11-11T03:13:42.219Z,4.70
2017-11-11T03:16:09.739Z,4.70
2017-11-11T03:18:38.017Z,4.70
2017-11-11T03:21:05.546Z,4.70
2017-11-11T03:23:33.068Z,4.70
2017-11-11T03:26:00.605Z,4.70
2017-11-11T03:28:28.889Z,4.80
2017-11-11T03:30:56.448Z,4.70
2017-11-11T03:33:23.998Z,4.70
2017-11-11T03:35:51.528Z,4.70
2017-11-11T03:38:19.041Z,4.70
2017-11-11T03:40:46.574Z,4.70
2017-11-11T03:43:14.861Z,4.70
2017-11-11T03:45:42.370Z,4.70
2017-11-11T03:48:09.905Z,4.70
2017-11-11T03:50:37.426Z,4.60
2017-11-11T03:53:05.018Z,4.60
2017-11-11T03:55:32.565Z,4.60
2017-11-11T03:58:00.069Z,4.60
2017-11-11T04:00:27.602Z,4.60
2017-11-11T04:02:55.238Z,4.60
2017-11-11T04:05:23.540Z,4.60
2017-11-11T04:07:51.090Z,4.60
2017-11-11T04:10:18.612Z,4.60
2017-11-11T04:12:46.146Z,4.60
2017-11-11T04:15:13.678Z,4.60
2017-11-11T04:17:41.182Z,4.60
2017-11-11T04:20:08.690Z,4.60
2017-11-11T04:22:36.226Z,4.60
2017-11-11T04:25:03.759Z,4.60
2017-11-11T04:27:31.284Z,4.60
2017-11-11T04:29:59.584Z,4.60
2017-11-11T04:32:27.085Z,4.60
2017-11-11T04:34:54.627Z,4.60
2017-11-11T04:37:22.129Z,4.70
2017-11-11T04:39:49.647Z,4.70
2017-11-11T04:42:17.182Z,4.70
2017-11-11T04:44:44.713Z,4.70
2017-11-11T04:47:12.226Z,4.70
2017-11-11T04:49:39.762Z,4.80
2017-11-11T04:52:07.275Z,4.80
2017-11-11T04:54:34.823Z,4.90
2017-11-11T04:57:02.362Z,4.90
2017-11-11T04:59:29.875Z,4.90
2017-11-11T05:01:58.146Z,4.90
2017-11-11T05:04:25.683Z,4.90
2017-11-11T05:06:53.193Z,4.90
2017-11-11T05:09:20.721Z,4.90
2017-11-11T05:11:48.262Z,4.90
2017-11-11T05:14:15.778Z,4.90
2017-11-11T05:16:43.294Z,4.90
2017-11-11T05:19:10.842Z,4.90
2017-11-11T05:21:38.347Z,4.90
2017-11-11T05:24:05.869Z,4.90
2017-11-11T05:26:34.435Z,4.90
2017-11-11T05:29:01.966Z,4.90
2017-11-11T05:31:29.484Z,4.80
2017-11-11T05:33:57.013Z,4.90
2017-11-11T05:36:25.290Z,4.90
2017-11-11T05:38:53.607Z,4.90
2017-11-11T05:41:21.882Z,4.90
2017-11-11T05:43:50.158Z,4.90
2017-11-11T05:46:17.706Z,4.80
2017-11-11T05:48:45.328Z,4.90
2017-11-11T05:51:12.842Z,4.90
2017-11-11T05:53:41.159Z,4.90
2017-11-11T05:56:08.695Z,4.80
2017-11-11T05:58:36.224Z,4.80
2017-11-11T06:01:03.866Z,4.80
2017-11-11T06:03:31.468Z,4.80
2017-11-11T06:05:59.147Z,4.80
2017-11-11T06:08:26.683Z,4.80
2017-11-11T06:10:54.975Z,4.80
2017-11-11T06:13:23.250Z,4.90
2017-11-11T06:15:51.546Z,4.80
2017-11-11T06:18:19.050Z,4.80
2017-11-11T06:20:46.649Z,4.80
2017-11-11T06:23:15.152Z,4.80
2017-11-11T06:25:42.670Z,4.80
2017-11-11T06:28:10.211Z,4.80
2017-11-11T06:30:37.713Z,4.80
2017-11-11T06:33:05.981Z,4.90
2017-11-11T06:35:34.283Z,4.90
2017-11-11T06:38:01.818Z,4.90
2017-11-11T06:40:30.135Z,5.00
2017-11-11T06:42:57.720Z,4.90
2017-11-11T06:45:25.457Z,5.00
2017-11-11T06:47:53.184Z,5.00
2017-11-11T06:50:20.881Z,5.00
2017-11-11T06:52:57.831Z,5.00
2017-11-11T06:55:25.549Z,5.10
2017-11-11T06:57:53.236Z,5.20
2017-11-11T07:00:20.827Z,5.20
2017-11-11T07:02:49.241Z,5.20
2017-11-11T07:05:16.859Z,5.20
2017-11-11T07:07:44.433Z,5.20
2017-11-11T07:10:12.053Z,5.20
2017-11-11T07:12:39.593Z,5.30
2017-11-11T07:15:07.251Z,5.40
2017-11-11T07:17:34.851Z,5.50
2017-11-11T07:20:02.555Z,5.50
2017-11-11T07:22:30.214Z,5.60
2017-11-11T07:24:57.968Z,5.60
2017-11-11T07:27:25.615Z,5.60
2017-11-11T07:29:53.949Z,5.60
2017-11-11T07:32:21.613Z,5.60
2017-11-11T07:34:49.272Z,5.60
2017-11-11T07:37:16.862Z,5.70
2017-11-11T07:39:44.415Z,5.70
2017-11-11T07:42:11.938Z,5.80
2017-11-11T07:44:39.494Z,5.90
2017-11-11T07:47:07.103Z,5.90
2017-11-11T07:49:34.630Z,5.90
2017-11-11T07:52:02.333Z,5.90
2017-11-11T07:54:29.881Z,6.00
2017-11-11T07:56:57.404Z,6.00
2017-11-11T07:59:25.002Z,6.20
2017-11-11T08:01:52.582Z,6.40
2017-11-11T08:04:20.118Z,6.50
2017-11-11T08:06:47.634Z,6.50
2017-11-11T08:09:15.219Z,6.50
2017-11-11T08:11:42.741Z,6.40
2017-11-11T08:14:11.023Z,6.40
2017-11-11T08:16:38.570Z,6.30
2017-11-11T08:19:06.217Z,6.30
2017-11-11T08:21:33.762Z,6.30
2017-11-11T08:24:01.283Z,6.20
2017-11-11T08:26:29.568Z,6.20
2017-11-11T08:28:57.127Z,6.20
2017-11-11T08:31:24.646Z,6.20
2017-11-11T08:33:52.930Z,6.30
2017-11-11T08:36:21.392Z,6.20
2017-11-11T08:38:49.022Z,6.20
2017-11-11T08:41:16.704Z,6.20
2017-11-11T08:43:44.418Z,6.30
2017-11-11T08:46:11.935Z,6.30
2017-11-11T08:48:39.445Z,6.30
2017-11-11T08:51:07.023Z,6.30
2017-11-11T08:53:34.706Z,6.30
2017-11-11T08:56:02.423Z,6.30
2017-11-11T08:58:30.107Z,6.40
2017-11-11T09:00:57.780Z,6.40
2017-11-11T09:03:25.380Z,6.30
2017-11-11T09:05:52.984Z,6.30
2017-11-11T09:08:20.687Z,6.30
2017-11-11T09:10:48.418Z,6.30
2017-11-11T09:13:16.019Z,6.40
2017-11-11T09:15:43.563Z,6.40
2017-11-11T09:18:12.039Z,6.40
2017-11-11T09:20:40.421Z,6.40
2017-11-11T09:23:07.974Z,6.40
2017-11-11T09:25:35.538Z,6.40
2017-11-11T09:28:03.050Z,6.40
2017-11-11T09:30:30.562Z,6.50
2017-11-11T09:32:58.121Z,6.60
2017-11-11T09:35:25.703Z,6.60
2017-11-11T09:37:53.205Z,6.60
2017-11-11T09:40:20.795Z,6.70
2017-11-11T09:42:49.118Z,6.80
2017-11-11T09:45:17.392Z,6.90
2017-11-11T09:47:44.907Z,6.90
2017-11-11T09:50:12.443Z,7.00
2017-11-11T09:52:40.009Z,7.10
2017-11-11T09:55:07.551Z,7.10
2017-11-11T09:57:35.097Z,7.00
2017-11-11T10:00:03.377Z,6.90
2017-11-11T10:02:30.893Z,6.90
2017-11-11T10:04:58.487Z,6.90
2017-11-11T10:07:26.222Z,6.90
2017-11-11T10:09:53.933Z,6.80
2017-11-11T10:12:22.432Z,6.90
2017-11-11T10:14:50.074Z,6.90
2017-11-11T10:17:19.373Z,6.90
2017-11-11T10:19:47.824Z,6.80
2017-11-11T10:22:16.144Z,6.90
2017-11-11T10:24:43.807Z,6.80
2017-11-11T10:27:11.453Z,6.80
2017-11-11T10:29:39.988Z,6.80
2017-11-11T10:34:36.508Z,6.80
2017-11-11T10:37:04.066Z,6.80
2017-11-11T10:39:32.338Z,7.60
2017-11-11T10:42:00.657Z,7.70
2017-11-11T10:44:28.242Z,7.70
2017-11-11T10:46:55.738Z,7.60
2017-11-11T10:49:24.024Z,7.90
2017-11-11T10:51:51.559Z,7.80
2017-11-11T10:54:19.088Z,7.90
2017-11-11T10:56:46.597Z,7.80
2017-11-11T10:59:14.206Z,7.70
2017-11-11T11:01:42.186Z,7.60
2017-11-11T11:04:09.991Z,7.40
2017-11-11T11:06:38.277Z,7.20
2017-11-11T11:09:05.925Z,7.20
2017-11-11T11:11:34.245Z,7.00
2017-11-11T11:14:01.855Z,7.00
2017-11-11T11:16:29.501Z,7.10
2017-11-11T11:18:58.015Z,7.00
2017-11-11T11:21:26.806Z,6.90
2017-11-11T11:23:55.419Z,6.90
2017-11-11T11:26:23.920Z,6.90
2017-11-11T11:28:51.633Z,6.90
2017-11-11T11:31:19.194Z,6.90
2017-11-11T11:33:47.461Z,6.70
2017-11-11T11:36:15.759Z,6.80
2017-11-11T11:38:43.295Z,6.80
2017-11-11T11:41:10.843Z,6.70
2017-11-11T11:43:38.375Z,6.70
2017-11-11T11:46:05.907Z,6.80
2017-11-11T11:48:33.509Z,6.80
2017-11-11T11:51:01.042Z,6.90
2017-11-11T11:53:28.732Z,6.90
2017-11-11T11:55:57.067Z,7.00
2017-11-11T11:58:24.591Z,7.00
2017-11-11T12:00:52.178Z,7.00
2017-11-11T12:03:20.468Z,6.90
2017-11-11T12:05:48.046Z,6.90
2017-11-11T12:08:15.612Z,6.90
2017-11-11T12:10:43.134Z,6.90
2017-11-11T12:13:10.646Z,6.90
2017-11-11T12:15:38.162Z,6.90
2017-11-11T12:18:05.769Z,6.90
2017-11-11T12:20:33.309Z,6.90
2017-11-11T12:23:00.861Z,6.90
2017-11-11T12:25:28.374Z,6.90
2017-11-11T12:27:56.005Z,6.90
2017-11-11T12:30:23.586Z,6.90
2017-11-11T12:32:51.097Z,6.90
2017-11-11T12:35:18.634Z,6.90
2017-11-11T12:37:47.176Z,6.90
2017-11-11T12:40:14.728Z,6.90
2017-11-11T12:42:42.261Z,6.90
2017-11-11T12:45:09.763Z,6.90
2017-11-11T12:47:37.293Z,6.90
2017-11-11T12:50:04.826Z,7.00
2017-11-11T12:52:32.329Z,7.00
2017-11-11T12:54:59.836Z,7.10
2017-11-11T12:57:27.742Z,7.10
2017-11-11T12:59:55.295Z,7.10
2017-11-11T13:02:22.798Z,7.10
2017-11-11T13:04:50.309Z,7.10
2017-11-11T13:07:17.860Z,7.20
2017-11-11T13:09:45.435Z,7.20
2017-11-11T13:12:12.996Z,7.20
2017-11-11T13:14:40.537Z,7.10
2017-11-11T13:17:08.041Z,7.10
2017-11-11T13:19:35.542Z,7.20
2017-11-11T13:22:03.066Z,7.20
2017-11-11T13:24:31.330Z,7.20
2017-11-11T13:26:58.830Z,7.20
2017-11-11T13:29:27.131Z,7.20
2017-11-11T13:31:54.725Z,7.20
2017-11-11T13:34:22.238Z,7.20
2017-11-11T13:36:49.801Z,7.20
2017-11-11T13:39:17.391Z,7.20
2017-11-11T13:41:44.939Z,7.20
2017-11-11T13:44:12.446Z,7.20
2017-11-11T13:46:39.953Z,7.20
2017-11-11T13:49:07.481Z,7.30
2017-11-11T13:51:35.017Z,7.20
2017-11-11T13:54:02.517Z,7.30
2017-11-11T13:56:30.034Z,7.30
2017-11-11T13:58:57.590Z,7.30
2017-11-11T14:01:25.100Z,7.30
2017-11-11T14:03:52.632Z,7.30
2017-11-11T14:06:20.194Z,7.30
2017-11-11T14:08:47.714Z,7.30
2017-11-11T14:11:15.222Z,7.30
2017-11-11T14:13:43.558Z,7.30
2017-11-11T14:16:11.219Z,7.30
2017-11-11T14:18:38.777Z,7.30
2017-11-11T14:21:06.327Z,7.30
2017-11-11T14:23:33.915Z,7.30
2017-11-11T14:26:01.473Z,7.30
2017-11-11T14:28:29.049Z,7.30
2017-11-11T14:30:56.830Z,7.30
2017-11-11T14:33:24.378Z,7.30
2017-11-11T14:35:51.910Z,7.30
2017-11-11T14:38:19.443Z,7.40
2017-11-11T14:40:46.960Z,7.30
2017-11-11T14:43:15.238Z,7.30
2017-11-11T14:45:43.547Z,7.30
2017-11-11T14:48:11.052Z,7.30
2017-11-11T14:50:38.575Z,7.30
2017-11-11T14:53:06.122Z,7.30
2017-11-11T14:55:33.634Z,7.20
2017-11-11T14:58:01.143Z,7.20
2017-11-11T15:00:28.676Z,7.10
2017-11-11T15:02:56.925Z,7.10
2017-11-11T15:05:25.222Z,7.10
2017-11-11T15:07:52.746Z,7.10
2017-11-11T15:10:20.287Z,7.10
2017-11-11T15:12:47.798Z,7.10
2017-11-11T15:15:15.446Z,7.00
2017-11-11T15:17:42.987Z,7.00
2017-11-11T15:20:10.683Z,7.00
2017-11-11T15:22:38.324Z,7.00
2017-11-11T15:25:05.848Z,7.00
2017-11-11T15:27:33.406Z,7.00
2017-11-11T15:30:00.936Z,7.00
2017-11-11T15:32:29.283Z,7.00
2017-11-11T15:34:56.840Z,7.00
2017-11-11T15:37:24.354Z,7.10
2017-11-11T15:39:53.662Z,7.10
2017-11-11T15:42:21.232Z,7.10
2017-11-11T15:44:48.738Z,7.10
2017-11-11T15:47:16.269Z,7.00
2017-11-11T15:49:43.760Z,7.00
2017-11-11T15:52:11.292Z,7.10
2017-11-11T15:54:38.806Z,7.10
2017-11-11T15:57:07.092Z,7.10
2017-11-11T15:59:34.630Z,7.00
2017-11-11T16:02:02.130Z,7.10
2017-11-11T16:04:29.661Z,7.10
2017-11-11T16:06:57.952Z,7.00
2017-11-11T16:09:26.681Z,7.00
2017-11-11T16:11:54.221Z,7.10
2017-11-11T16:14:22.181Z,7.10
2017-11-11T16:16:50.309Z,7.10
2017-11-11T16:19:17.937Z,7.10
2017-11-11T16:21:45.817Z,7.10
2017-11-11T16:24:13.367Z,7.10
2017-11-11T16:26:40.879Z,7.20
2017-11-11T16:29:08.550Z,7.20
2017-11-11T16:31:36.254Z,7.20
2017-11-11T16:34:04.589Z,7.10
2017-11-11T16:36:32.179Z,7.10
2017-11-11T16:38:59.773Z,7.10
2017-11-11T16:41:28.493Z,7.10
2017-11-11T16:43:56.206Z,7.10
2017-11-11T16:46:23.851Z,7.10
2017-11-11T16:48:51.710Z,7.10
2017-11-11T16:51:19.323Z,7.10
2017-11-11T16:53:47.629Z,7.20
2017-11-11T16:56:16.078Z,7.20
2017-11-11T16:58:43.780Z,7.20
2017-11-11T17:01:12.112Z,7.20
2017-11-11T17:03:39.712Z,7.10
2017-11-11T17:06:07.274Z,7.20
2017-11-11T17:08:35.040Z,7.20
2017-11-11T17:11:02.616Z,7.20
2017-11-11T17:13:30.281Z,7.20
2017-11-11T17:15:57.938Z,7.20
2017-11-11T17:18:25.477Z,7.20
2017-11-11T17:20:53.116Z,7.30
2017-11-11T17:23:21.034Z,7.30
2017-11-11T17:25:48.916Z,7.30
2017-11-11T17:28:16.954Z,7.20
2017-11-11T17:30:45.417Z,7.30
2017-11-11T17:33:13.710Z,7.30
2017-11-11T17:35:42.283Z,7.30
2017-11-11T17:38:11.007Z,7.30
2017-11-11T17:40:38.611Z,7.30
2017-11-11T17:43:06.149Z,7.30
2017-11-11T17:45:33.662Z,7.30
2017-11-11T17:48:01.204Z,7.30
2017-11-11T17:50:28.710Z,7.30
2017-11-11T17:52:56.257Z,7.40
2017-11-11T17:55:24.104Z,7.40
2017-11-11T17:57:51.796Z,7.40
2017-11-11T18:00:19.368Z,7.40
2017-11-11T18:02:47.059Z,7.40
2017-11-11T18:05:14.609Z,7.40
2017-11-11T18:07:42.341Z,7.40
2017-11-11T18:10:09.877Z,7.40
2017-11-11T18:12:38.491Z,7.50
2017-11-11T18:15:06.325Z,7.50
2017-11-11T18:17:33.972Z,7.50
2017-11-11T18:20:01.518Z,7.50
2017-11-11T18:22:29.289Z,7.60
2017-11-11T18:24:56.875Z,7.50
2017-11-11T18:27:24.556Z,7.50
2017-11-11T18:29:52.086Z,7.50
2017-11-11T18:32:19.611Z,7.50
2017-11-11T18:34:47.141Z,7.50
2017-11-11T18:37:15.073Z,7.50
2017-11-11T18:39:42.629Z,7.50
2017-11-11T18:42:10.920Z,7.50
2017-11-11T18:44:39.259Z,7.60
2017-11-11T18:47:07.761Z,7.50
2017-11-11T18:49:35.492Z,7.80
2017-11-11T18:52:03.288Z,7.70
2017-11-11T18:54:31.666Z,7.70
2017-11-11T18:56:59.311Z,7.70
2017-11-11T18:59:27.873Z,7.70
2017-11-11T19:01:55.442Z,7.70
2017-11-11T19:04:23.629Z,7.70
2017-11-11T19:06:52.366Z,7.70
2017-11-11T19:09:19.882Z,7.70
2017-11-11T19:11:47.680Z,7.70
2017-11-11T19:14:15.251Z,7.70
2017-11-11T19:16:43.691Z,7.70
2017-11-11T19:19:12.020Z,7.70
2017-11-11T19:21:39.888Z,7.70
2017-11-11T19:24:08.268Z,7.70
2017-11-11T19:26:36.797Z,7.70
2017-11-11T19:29:04.570Z,7.70
2017-11-11T19:31:32.351Z,7.70
2017-11-11T19:33:59.910Z,7.70
2017-11-11T19:36:27.479Z,7.70
2017-11-11T19:38:55.018Z,7.80
2017-11-11T19:41:22.569Z,7.80
2017-11-11T19:43:50.545Z,7.70
2017-11-11T19:46:18.422Z,7.70
2017-11-11T19:48:47.213Z,7.80
2017-11-11T19:51:14.759Z,7.80
2017-11-11T19:53:42.517Z,7.80
2017-11-11T19:56:10.090Z,7.80
2017-11-11T19:58:37.979Z,7.90
2017-11-11T20:01:05.513Z,7.90
2017-11-11T20:03:33.132Z,8.00
2017-11-11T20:06:00.735Z,8.00
2017-11-11T20:08:28.442Z,7.90
2017-11-11T20:10:56.357Z,8.00
2017-11-11T20:13:24.216Z,8.00
2017-11-11T20:15:51.740Z,8.00
2017-11-11T20:18:19.603Z,8.00
2017-11-11T20:20:48.043Z,8.00
2017-11-11T20:23:15.714Z,8.00
2017-11-11T20:25:43.273Z,8.00
2017-11-11T20:28:10.950Z,8.00
2017-11-11T20:30:39.301Z,8.00
2017-11-11T20:33:06.863Z,8.00
2017-11-11T20:35:34.717Z,8.00
2017-11-11T20:38:02.418Z,8.10
2017-11-11T20:40:30.169Z,8.10
2017-11-11T20:42:57.769Z,8.20
2017-11-11T20:45:25.384Z,8.10
2017-11-11T20:47:53.716Z,8.20
2017-11-11T20:50:21.456Z,8.20
2017-11-11T20:52:49.020Z,8.20
2017-11-11T20:55:16.538Z,8.20
2017-11-11T20:57:44.051Z,8.20
2017-11-11T21:00:11.583Z,8.20
2017-11-11T21:02:39.474Z,8.20
2017-11-11T21:05:07.218Z,8.20
2017-11-11T21:07:34.986Z,8.20
2017-11-11T21:10:03.406Z,8.20
2017-11-11T21:12:31.205Z,8.20
2017-11-11T21:14:58.756Z,8.20
2017-11-11T21:17:26.267Z,8.20
2017-11-11T21:19:53.793Z,8.20
2017-11-11T21:22:21.380Z,8.20
2017-11-11T21:24:48.888Z,8.20
2017-11-11T21:27:16.411Z,8.20
2017-11-11T21:29:44.911Z,8.20
2017-11-11T21:32:12.471Z,8.20
2017-11-11T21:34:40.740Z,8.10
2017-11-11T21:37:09.035Z,8.10
2017-11-11T21:39:36.815Z,8.10
2017-11-11T21:42:04.320Z,8.00
2017-11-11T21:44:31.825Z,8.10
2017-11-11T21:46:59.440Z,8.00
2017-11-11T21:49:27.727Z,8.00
2017-11-11T21:51:55.275Z,8.00
2017-11-11T21:54:22.814Z,8.00
2017-11-11T21:56:50.389Z,7.90
2017-11-11T21:59:18.874Z,7.90
2017-11-11T22:01:46.471Z,7.90
2017-11-11T22:04:14.005Z,7.90
2017-11-11T22:06:41.545Z,7.80
2017-11-11T22:09:09.086Z,7.80
2017-11-11T22:11:36.622Z,7.80
2017-11-11T22:14:04.164Z,7.80
2017-11-11T22:16:32.446Z,7.70
2017-11-11T22:19:00.719Z,7.70
2017-11-11T22:21:29.042Z,7.70
2017-11-11T22:23:56.598Z,7.70
2017-11-11T22:26:24.133Z,7.70
2017-11-11T22:28:51.711Z,7.70
2017-11-11T22:31:19.364Z,7.70
2017-11-11T22:33:46.930Z,7.70
2017-11-11T22:36:14.508Z,7.60
2017-11-11T22:38:42.007Z,7.60
2017-11-11T22:41:10.355Z,7.40
2017-11-11T22:43:37.867Z,7.40
2017-11-11T22:46:05.409Z,7.40
2017-11-11T22:48:33.710Z,7.40
2017-11-11T22:51:01.254Z,7.40
2017-11-11T22:53:29.589Z,7.40
2017-11-11T22:55:57.212Z,7.40
2017-11-11T22:58:24.763Z,7.30
2017-11-11T23:00:52.286Z,7.30
2017-11-11T23:03:19.824Z,7.30
2017-11-11T23:05:47.404Z,7.30
2017-11-11T23:08:14.944Z,7.20
2017-11-11T23:10:42.490Z,7.20
2017-11-11T23:13:10.026Z,7.30
2017-11-11T23:15:37.537Z,7.40
2017-11-11T23:18:05.065Z,7.50
2017-11-11T23:20:32.578Z,7.50
2017-11-11T23:23:00.095Z,7.50
2017-11-11T23:25:27.625Z,7.40
2017-11-11T23:27:55.129Z,7.30
2017-11-11T23:30:23.393Z,7.20
2017-11-11T23:32:50.924Z,7.20
2017-11-11T23:35:18.426Z,7.20
2017-11-11T23:37:45.933Z,7.10
2017-11-11T23:40:13.478Z,7.10
2017-11-11T23:42:41.760Z,7.00
2017-11-11T23:45:10.057Z,7.00
2017-11-11T23:47:37.585Z,7.00
2017-11-11T23:50:05.879Z,7.00
2017-11-11T23:52:34.162Z,7.00
2017-11-11T23:55:01.704Z,6.90
2017-11-11T23:57:29.970Z,7.00
2017-11-11T23:59:57.476Z,7.00
